sensor_id;sensor_type;location;lat;lon;timestamp;pressure;altitude;pressure_sealevel;temperature;humidity
11672;BME280;5892;43.412;24.612;2022-12-18T00:01:01;100940.06;;;7.09;100.00
11672;BME280;5892;43.412;24.612;2022-12-18T00:03:31;100941.44;;;7.01;100.00
11672;BME280;5892;43.412;24.612;2022-12-18T00:06:00;100929.44;;;6.87;100.00
11672;BME280;5892;43.412;24.612;2022-12-18T00:08:28;100939.25;;;6.88;100.00
11672;BME280;5892;43.412;24.612;2022-12-18T00:10:55;100955.59;;;7.03;100.00
11672;BME280;5892;43.412;24.612;2022-12-18T00:13:22;100932.13;;;6.82;100.00
11672;BME280;5892;43.412;24.612;2022-12-18T00:15:49;100952.88;;;7.03;100.00
11672;BME280;5892;43.412;24.612;2022-12-18T00:18:16;100962.69;;;7.04;100.00
11672;BME280;5892;43.412;24.612;2022-12-18T00:20:43;100956.69;;;6.97;100.00
11672;BME280;5892;43.412;24.612;2022-12-18T00:23:11;100951.22;;;6.97;100.00
11672;BME280;5892;43.412;24.612;2022-12-18T00:25:38;100974.16;;;7.11;100.00
11672;BME280;5892;43.412;24.612;2022-12-18T00:28:05;100982.59;;;7.20;100.00
11672;BME280;5892;43.412;24.612;2022-12-18T00:30:32;100984.25;;;7.21;100.00
11672;BME280;5892;43.412;24.612;2022-12-18T00:32:58;100979.31;;;7.08;100.00
11672;BME280;5892;43.412;24.612;2022-12-18T00:35:26;100983.69;;;7.14;100.00
11672;BME280;5892;43.412;24.612;2022-12-18T00:37:53;100982.84;;;7.13;100.00
11672;BME280;5892;43.412;24.612;2022-12-18T00:40:22;100975.22;;;6.95;100.00
11672;BME280;5892;43.412;24.612;2022-12-18T00:42:49;101003.00;;;7.02;100.00
11672;BME280;5892;43.412;24.612;2022-12-18T00:45:21;100997.03;;;6.95;100.00
11672;BME280;5892;43.412;24.612;2022-12-18T00:47:48;101006.28;;;6.89;100.00
11672;BME280;5892;43.412;24.612;2022-12-18T00:50:15;100971.06;;;6.62;100.00
11672;BME280;5892;43.412;24.612;2022-12-18T00:52:42;100983.06;;;6.71;100.00
11672;BME280;5892;43.412;24.612;2022-12-18T00:55:10;101017.16;;;6.89;100.00
11672;BME280;5892;43.412;24.612;2022-12-18T00:57:41;101006.78;;;6.86;100.00
11672;BME280;5892;43.412;24.612;2022-12-18T01:00:11;101011.16;;;6.92;100.00
11672;BME280;5892;43.412;24.612;2022-12-18T01:02:40;101011.47;;;6.91;100.00
11672;BME280;5892;43.412;24.612;2022-12-18T01:05:08;100977.34;;;6.68;100.00
11672;BME280;5892;43.412;24.612;2022-12-18T01:07:36;101020.41;;;6.86;100.00
11672;BME280;5892;43.412;24.612;2022-12-18T01:10:04;101009.50;;;6.86;100.00
11672;BME280;5892;43.412;24.612;2022-12-18T01:12:31;100987.66;;;6.66;100.00
11672;BME280;5892;43.412;24.612;2022-12-18T01:14:59;101022.84;;;6.72;100.00
11672;BME280;5892;43.412;24.612;2022-12-18T01:17:26;101020.66;;;6.74;100.00
11672;BME280;5892;43.412;24.612;2022-12-18T01:19:53;101022.28;;;6.75;100.00
11672;BME280;5892;43.412;24.612;2022-12-18T01:22:21;101002.34;;;6.60;100.00
11672;BME280;5892;43.412;24.612;2022-12-18T01:24:48;101030.47;;;6.75;100.00
11672;BME280;5892;43.412;24.612;2022-12-18T01:27:16;101041.06;;;6.72;100.00
11672;BME280;5892;43.412;24.612;2022-12-18T01:29:42;100986.22;;;6.38;100.00
11672;BME280;5892;43.412;24.612;2022-12-18T01:32:11;101043.81;;;6.77;100.00
11672;BME280;5892;43.412;24.612;2022-12-18T01:34:38;101051.47;;;6.75;100.00
11672;BME280;5892;43.412;24.612;2022-12-18T01:37:05;101007.22;;;6.43;100.00
11672;BME280;5892;43.412;24.612;2022-12-18T01:39:32;101018.16;;;6.58;100.00
11672;BME280;5892;43.412;24.612;2022-12-18T01:42:00;101055.25;;;6.74;100.00
11672;BME280;5892;43.412;24.612;2022-12-18T01:44:53;101058.78;;;6.69;100.00
11672;BME280;5892;43.412;24.612;2022-12-18T01:47:25;101056.31;;;6.63;100.00
11672;BME280;5892;43.412;24.612;2022-12-18T01:49:52;101061.19;;;6.66;100.00
11672;BME280;5892;43.412;24.612;2022-12-18T01:52:21;101027.59;;;6.40;100.00
11672;BME280;5892;43.412;24.612;2022-12-18T01:54:49;101062.28;;;6.65;100.00
11672;BME280;5892;43.412;24.612;2022-12-18T01:57:18;101031.38;;;6.34;100.00
11672;BME280;5892;43.412;24.612;2022-12-18T01:59:47;101069.88;;;6.53;100.00
11672;BME280;5892;43.412;24.612;2022-12-18T02:02:17;101040.91;;;6.31;100.00
11672;BME280;5892;43.412;24.612;2022-12-18T02:04:46;101077.75;;;6.54;100.00
11672;BME280;5892;43.412;24.612;2022-12-18T02:07:19;101076.13;;;6.53;100.00
11672;BME280;5892;43.412;24.612;2022-12-18T02:09:53;101060.00;;;6.36;100.00
11672;BME280;5892;43.412;24.612;2022-12-18T02:12:24;101076.66;;;6.50;100.00
11672;BME280;5892;43.412;24.612;2022-12-18T02:14:55;101059.41;;;6.34;100.00
11672;BME280;5892;43.412;24.612;2022-12-18T02:17:31;101078.84;;;6.48;100.00
11672;BME280;5892;43.412;24.612;2022-12-18T02:20:09;101080.16;;;6.46;100.00
11672;BME280;5892;43.412;24.612;2022-12-18T02:22:49;101082.06;;;6.45;100.00
11672;BME280;5892;43.412;24.612;2022-12-18T02:25:33;101081.25;;;6.45;100.00
11672;BME280;5892;43.412;24.612;2022-12-18T02:28:09;101078.53;;;6.45;100.00
11672;BME280;5892;43.412;24.612;2022-12-18T02:30:39;101074.69;;;6.35;100.00
11672;BME280;5892;43.412;24.612;2022-12-18T02:33:11;101100.28;;;6.39;100.00
11672;BME280;5892;43.412;24.612;2022-12-18T02:35:40;101088.56;;;6.39;100.00
11672;BME280;5892;43.412;24.612;2022-12-18T02:38:07;101089.69;;;6.38;100.00
11672;BME280;5892;43.412;24.612;2022-12-18T02:40:36;101033.69;;;6.05;100.00
11672;BME280;5892;43.412;24.612;2022-12-18T02:43:09;101094.81;;;6.34;100.00
11672;BME280;5892;43.412;24.612;2022-12-18T02:45:45;101089.63;;;6.28;100.00
11672;BME280;5892;43.412;24.612;2022-12-18T02:48:13;101073.13;;;6.08;100.00
11672;BME280;5892;43.412;24.612;2022-12-18T02:50:45;101077.47;;;6.04;100.00
11672;BME280;5892;43.412;24.612;2022-12-18T02:53:26;101108.59;;;6.23;100.00
11672;BME280;5892;43.412;24.612;2022-12-18T02:56:00;101043.22;;;5.76;100.00
11672;BME280;5892;43.412;24.612;2022-12-18T02:58:35;101117.56;;;6.18;100.00
11672;BME280;5892;43.412;24.612;2022-12-18T03:01:11;101119.22;;;6.19;100.00
11672;BME280;5892;43.412;24.612;2022-12-18T03:03:45;101111.00;;;6.14;100.00
11672;BME280;5892;43.412;24.612;2022-12-18T03:06:20;101120.84;;;6.20;100.00
11672;BME280;5892;43.412;24.612;2022-12-18T03:08:54;101123.25;;;6.12;100.00
11672;BME280;5892;43.412;24.612;2022-12-18T03:11:24;101121.69;;;6.21;100.00
11672;BME280;5892;43.412;24.612;2022-12-18T03:14:09;101127.41;;;6.24;100.00
11672;BME280;5892;43.412;24.612;2022-12-18T03:16:36;101099.97;;;5.94;100.00
11672;BME280;5892;43.412;24.612;2022-12-18T03:19:08;101135.47;;;6.09;100.00
11672;BME280;5892;43.412;24.612;2022-12-18T03:21:42;101120.72;;;6.00;100.00
11672;BME280;5892;43.412;24.612;2022-12-18T03:24:12;101142.47;;;6.00;100.00
11672;BME280;5892;43.412;24.612;2022-12-18T03:26:44;101138.97;;;6.05;100.00
11672;BME280;5892;43.412;24.612;2022-12-18T03:29:17;101116.91;;;6.01;100.00
11672;BME280;5892;43.412;24.612;2022-12-18T03:31:53;101141.16;;;6.08;100.00
11672;BME280;5892;43.412;24.612;2022-12-18T03:34:24;101128.84;;;5.95;100.00
11672;BME280;5892;43.412;24.612;2022-12-18T03:36:53;101149.56;;;6.01;100.00
11672;BME280;5892;43.412;24.612;2022-12-18T03:39:20;101143.50;;;5.94;100.00
11672;BME280;5892;43.412;24.612;2022-12-18T03:41:52;101117.78;;;5.80;100.00
11672;BME280;5892;43.412;24.612;2022-12-18T03:44:29;101153.44;;;6.10;100.00
11672;BME280;5892;43.412;24.612;2022-12-18T03:47:06;101156.94;;;6.06;100.00
11672;BME280;5892;43.412;24.612;2022-12-18T03:49:38;101165.34;;;6.04;100.00
11672;BME280;5892;43.412;24.612;2022-12-18T03:52:09;101136.38;;;5.88;100.00
11672;BME280;5892;43.412;24.612;2022-12-18T03:54:39;101174.50;;;5.93;100.00
11672;BME280;5892;43.412;24.612;2022-12-18T03:57:11;101161.78;;;5.99;100.00
11672;BME280;5892;43.412;24.612;2022-12-18T03:59:43;101165.72;;;5.86;100.00
11672;BME280;5892;43.412;24.612;2022-12-18T04:02:12;101166.22;;;5.83;100.00
11672;BME280;5892;43.412;24.612;2022-12-18T04:04:42;101161.84;;;5.82;100.00
11672;BME280;5892;43.412;24.612;2022-12-18T04:07:12;101177.09;;;5.83;100.00
11672;BME280;5892;43.412;24.612;2022-12-18T04:09:41;101178.50;;;5.85;100.00
11672;BME280;5892;43.412;24.612;2022-12-18T04:12:11;101177.53;;;5.70;100.00
11672;BME280;5892;43.412;24.612;2022-12-18T04:14:38;101195.84;;;5.79;100.00
11672;BME280;5892;43.412;24.612;2022-12-18T04:17:06;101192.81;;;5.76;100.00
11672;BME280;5892;43.412;24.612;2022-12-18T04:19:34;101203.13;;;5.74;100.00
11672;BME280;5892;43.412;24.612;2022-12-18T04:22:01;101202.56;;;5.72;100.00
11672;BME280;5892;43.412;24.612;2022-12-18T04:24:28;101162.59;;;5.45;100.00
11672;BME280;5892;43.412;24.612;2022-12-18T04:26:55;101157.69;;;5.42;100.00
11672;BME280;5892;43.412;24.612;2022-12-18T04:29:22;101213.19;;;5.73;100.00
11672;BME280;5892;43.412;24.612;2022-12-18T04:31:49;101204.97;;;5.68;100.00
11672;BME280;5892;43.412;24.612;2022-12-18T04:34:17;101211.25;;;5.69;100.00
11672;BME280;5892;43.412;24.612;2022-12-18T04:36:45;101194.25;;;5.57;100.00
11672;BME280;5892;43.412;24.612;2022-12-18T04:39:13;101214.41;;;5.61;100.00
11672;BME280;5892;43.412;24.612;2022-12-18T04:41:40;101206.97;;;5.51;100.00
11672;BME280;5892;43.412;24.612;2022-12-18T04:44:07;101223.53;;;5.49;100.00
11672;BME280;5892;43.412;24.612;2022-12-18T04:46:34;101226.50;;;5.48;100.00
11672;BME280;5892;43.412;24.612;2022-12-18T04:49:02;101224.56;;;5.43;100.00
11672;BME280;5892;43.412;24.612;2022-12-18T04:51:30;101231.13;;;5.47;100.00
11672;BME280;5892;43.412;24.612;2022-12-18T04:53:57;101216.53;;;5.32;100.00
11672;BME280;5892;43.412;24.612;2022-12-18T04:56:24;101232.06;;;5.36;100.00
11672;BME280;5892;43.412;24.612;2022-12-18T04:58:51;101230.06;;;5.27;100.00
11672;BME280;5892;43.412;24.612;2022-12-18T05:01:19;101236.69;;;5.36;100.00
11672;BME280;5892;43.412;24.612;2022-12-18T05:03:46;101254.94;;;5.40;100.00
11672;BME280;5892;43.412;24.612;2022-12-18T05:06:13;101241.28;;;5.35;100.00
11672;BME280;5892;43.412;24.612;2022-12-18T05:08:41;101255.34;;;5.49;100.00
11672;BME280;5892;43.412;24.612;2022-12-18T05:11:10;101264.75;;;5.41;100.00
11672;BME280;5892;43.412;24.612;2022-12-18T05:13:38;101251.09;;;5.36;100.00
11672;BME280;5892;43.412;24.612;2022-12-18T05:16:05;101223.50;;;5.23;100.00
11672;BME280;5892;43.412;24.612;2022-12-18T05:18:33;101273.34;;;5.55;100.00
11672;BME280;5892;43.412;24.612;2022-12-18T05:21:00;101209.78;;;5.13;100.00
11672;BME280;5892;43.412;24.612;2022-12-18T05:23:28;101266.41;;;5.42;100.00
11672;BME280;5892;43.412;24.612;2022-12-18T05:25:58;101281.72;;;5.48;100.00
11672;BME280;5892;43.412;24.612;2022-12-18T05:28:28;101270.13;;;5.36;100.00
11672;BME280;5892;43.412;24.612;2022-12-18T05:30:58;101278.94;;;5.43;100.00
11672;BME280;5892;43.412;24.612;2022-12-18T05:33:29;101296.38;;;5.47;100.00
11672;BME280;5892;43.412;24.612;2022-12-18T05:35:58;101296.25;;;5.37;100.00
11672;BME280;5892;43.412;24.612;2022-12-18T05:38:26;101309.59;;;5.39;100.00
11672;BME280;5892;43.412;24.612;2022-12-18T05:40:53;101309.06;;;5.42;100.00
11672;BME280;5892;43.412;24.612;2022-12-18T05:43:23;101279.81;;;5.27;100.00
11672;BME280;5892;43.412;24.612;2022-12-18T05:45:52;101315.97;;;5.49;100.00
11672;BME280;5892;43.412;24.612;2022-12-18T05:48:20;101313.88;;;5.57;100.00
11672;BME280;5892;43.412;24.612;2022-12-18T05:50:49;101324.19;;;5.54;100.00
11672;BME280;5892;43.412;24.612;2022-12-18T05:53:18;101326.84;;;5.49;100.00
11672;BME280;5892;43.412;24.612;2022-12-18T05:55:46;101327.16;;;5.53;100.00
11672;BME280;5892;43.412;24.612;2022-12-18T05:58:13;101325.00;;;5.55;100.00
11672;BME280;5892;43.412;24.612;2022-12-18T06:00:44;101317.34;;;5.52;100.00
11672;BME280;5892;43.412;24.612;2022-12-18T06:03:14;101320.06;;;5.52;100.00
11672;BME280;5892;43.412;24.612;2022-12-18T06:05:49;101335.63;;;5.57;100.00
11672;BME280;5892;43.412;24.612;2022-12-18T06:08:16;101343.16;;;5.49;100.00
11672;BME280;5892;43.412;24.612;2022-12-18T06:10:50;101332.19;;;5.44;100.00
11672;BME280;5892;43.412;24.612;2022-12-18T06:13:18;101342.34;;;5.49;100.00
11672;BME280;5892;43.412;24.612;2022-12-18T06:15:47;101243.19;;;4.91;100.00
11672;BME280;5892;43.412;24.612;2022-12-18T06:18:14;101303.56;;;5.37;100.00
11672;BME280;5892;43.412;24.612;2022-12-18T06:20:41;101346.38;;;5.68;100.00
11672;BME280;5892;43.412;24.612;2022-12-18T06:23:08;101352.97;;;5.72;100.00
11672;BME280;5892;43.412;24.612;2022-12-18T06:25:38;101365.56;;;5.78;100.00
11672;BME280;5892;43.412;24.612;2022-12-18T06:28:05;101324.03;;;5.44;100.00
11672;BME280;5892;43.412;24.612;2022-12-18T06:30:33;101373.34;;;5.70;100.00
11672;BME280;5892;43.412;24.612;2022-12-18T06:33:01;101384.59;;;5.78;100.00
11672;BME280;5892;43.412;24.612;2022-12-18T06:35:28;101353.59;;;5.58;100.00
11672;BME280;5892;43.412;24.612;2022-12-18T06:37:54;101373.41;;;5.75;100.00
11672;BME280;5892;43.412;24.612;2022-12-18T06:40:21;101387.13;;;5.85;100.00
11672;BME280;5892;43.412;24.612;2022-12-18T06:42:48;101377.00;;;5.80;100.00
11672;BME280;5892;43.412;24.612;2022-12-18T06:45:15;101390.00;;;5.95;100.00
11672;BME280;5892;43.412;24.612;2022-12-18T06:47:42;101389.81;;;6.02;100.00
11672;BME280;5892;43.412;24.612;2022-12-18T06:50:11;101329.94;;;5.58;100.00
11672;BME280;5892;43.412;24.612;2022-12-18T06:52:38;101399.41;;;6.09;100.00
11672;BME280;5892;43.412;24.612;2022-12-18T06:55:08;101391.25;;;6.09;100.00
11672;BME280;5892;43.412;24.612;2022-12-18T06:57:35;101397.81;;;6.13;100.00
11672;BME280;5892;43.412;24.612;2022-12-18T07:00:04;101409.72;;;6.07;100.00
11672;BME280;5892;43.412;24.612;2022-12-18T07:02:33;101410.81;;;6.06;100.00
11672;BME280;5892;43.412;24.612;2022-12-18T07:05:00;101405.44;;;6.11;100.00
11672;BME280;5892;43.412;24.612;2022-12-18T07:07:29;101386.75;;;5.98;100.00
11672;BME280;5892;43.412;24.612;2022-12-18T07:09:56;101417.06;;;6.28;100.00
11672;BME280;5892;43.412;24.612;2022-12-18T07:12:23;101423.66;;;6.32;100.00
11672;BME280;5892;43.412;24.612;2022-12-18T07:14:50;101404.59;;;6.32;100.00
11672;BME280;5892;43.412;24.612;2022-12-18T07:17:17;101406.34;;;6.44;100.00
11672;BME280;5892;43.412;24.612;2022-12-18T07:19:47;101393.13;;;6.30;100.00
11672;BME280;5892;43.412;24.612;2022-12-18T07:22:14;101411.53;;;6.45;100.00
11672;BME280;5892;43.412;24.612;2022-12-18T07:24:42;101434.19;;;6.51;100.00
11672;BME280;5892;43.412;24.612;2022-12-18T07:27:11;101412.06;;;6.42;100.00
11672;BME280;5892;43.412;24.612;2022-12-18T07:29:38;101423.34;;;6.56;100.00
11672;BME280;5892;43.412;24.612;2022-12-18T07:32:05;101425.91;;;6.67;100.00
11672;BME280;5892;43.412;24.612;2022-12-18T07:34:32;101439.13;;;6.80;100.00
11672;BME280;5892;43.412;24.612;2022-12-18T07:36:59;101444.31;;;6.82;100.00
11672;BME280;5892;43.412;24.612;2022-12-18T07:39:27;101438.91;;;6.87;100.00
11672;BME280;5892;43.412;24.612;2022-12-18T07:41:55;101411.53;;;6.72;100.00
11672;BME280;5892;43.412;24.612;2022-12-18T07:44:39;101433.22;;;6.89;100.00
11672;BME280;5892;43.412;24.612;2022-12-18T07:47:09;101437.53;;;6.85;100.00
11672;BME280;5892;43.412;24.612;2022-12-18T07:49:38;101427.91;;;6.77;100.00
11672;BME280;5892;43.412;24.612;2022-12-18T07:52:05;101426.19;;;6.98;100.00
11672;BME280;5892;43.412;24.612;2022-12-18T07:54:32;101437.91;;;6.98;100.00
11672;BME280;5892;43.412;24.612;2022-12-18T07:57:00;101441.22;;;7.00;100.00
11672;BME280;5892;43.412;24.612;2022-12-18T07:59:27;101416.78;;;6.78;100.00
11672;BME280;5892;43.412;24.612;2022-12-18T08:01:54;101454.41;;;7.13;100.00
11672;BME280;5892;43.412;24.612;2022-12-18T08:04:21;101454.97;;;7.15;100.00
11672;BME280;5892;43.412;24.612;2022-12-18T08:06:48;101464.09;;;6.99;100.00
11672;BME280;5892;43.412;24.612;2022-12-18T08:09:16;101436.91;;;6.77;100.00
11672;BME280;5892;43.412;24.612;2022-12-18T08:11:44;101475.56;;;7.01;100.00
11672;BME280;5892;43.412;24.612;2022-12-18T08:14:13;101440.63;;;6.66;100.00
11672;BME280;5892;43.412;24.612;2022-12-18T08:16:42;101480.75;;;7.03;100.00
11672;BME280;5892;43.412;24.612;2022-12-18T08:19:09;101488.19;;;6.86;100.00
11672;BME280;5892;43.412;24.612;2022-12-18T08:21:40;101488.47;;;6.84;100.00
11672;BME280;5892;43.412;24.612;2022-12-18T08:24:09;101486.34;;;6.91;100.00
11672;BME280;5892;43.412;24.612;2022-12-18T08:26:37;101473.72;;;6.80;100.00
11672;BME280;5892;43.412;24.612;2022-12-18T08:29:05;101394.88;;;6.42;100.00
11672;BME280;5892;43.412;24.612;2022-12-18T08:31:35;101496.03;;;7.04;100.00
11672;BME280;5892;43.412;24.612;2022-12-18T08:34:02;101501.78;;;7.07;100.00
11672;BME280;5892;43.412;24.612;2022-12-18T08:36:29;101504.50;;;7.07;100.00
11672;BME280;5892;43.412;24.612;2022-12-18T08:38:56;101507.75;;;7.04;100.00
11672;BME280;5892;43.412;24.612;2022-12-18T08:41:23;101501.19;;;7.00;100.00
11672;BME280;5892;43.412;24.612;2022-12-18T08:43:50;101488.88;;;6.98;100.00
11672;BME280;5892;43.412;24.612;2022-12-18T08:46:37;101500.31;;;6.95;100.00
11672;BME280;5892;43.412;24.612;2022-12-18T08:49:05;101499.47;;;6.94;100.00
11672;BME280;5892;43.412;24.612;2022-12-18T08:51:33;101431.94;;;6.21;100.00
11672;BME280;5892;43.412;24.612;2022-12-18T08:54:00;101500.22;;;6.63;100.00
11672;BME280;5892;43.412;24.612;2022-12-18T08:56:27;101495.81;;;6.57;100.00
11672;BME280;5892;43.412;24.612;2022-12-18T08:58:55;101484.59;;;6.53;100.00
11672;BME280;5892;43.412;24.612;2022-12-18T09:01:23;101493.66;;;6.59;100.00
11672;BME280;5892;43.412;24.612;2022-12-18T09:03:51;101495.22;;;6.55;100.00
11672;BME280;5892;43.412;24.612;2022-12-18T09:06:20;101490.06;;;6.53;100.00
11672;BME280;5892;43.412;24.612;2022-12-18T09:08:48;101503.38;;;6.55;100.00
11672;BME280;5892;43.412;24.612;2022-12-18T09:11:19;101483.91;;;6.41;100.00
11672;BME280;5892;43.412;24.612;2022-12-18T09:13:47;101462.06;;;6.36;100.00
11672;BME280;5892;43.412;24.612;2022-12-18T09:16:13;101508.91;;;6.60;100.00
11672;BME280;5892;43.412;24.612;2022-12-18T09:18:40;101497.44;;;6.58;100.00
11672;BME280;5892;43.412;24.612;2022-12-18T09:21:11;101507.00;;;6.60;99.83
11672;BME280;5892;43.412;24.612;2022-12-18T09:23:38;101512.84;;;6.69;98.18
11672;BME280;5892;43.412;24.612;2022-12-18T09:26:05;101509.41;;;6.78;98.11
11672;BME280;5892;43.412;24.612;2022-12-18T09:28:33;101510.34;;;6.89;98.07
11672;BME280;5892;43.412;24.612;2022-12-18T09:31:04;101510.53;;;7.09;97.26
11672;BME280;5892;43.412;24.612;2022-12-18T09:33:31;101494.66;;;7.01;95.18
11672;BME280;5892;43.412;24.612;2022-12-18T09:36:01;101525.22;;;7.08;93.57
11672;BME280;5892;43.412;24.612;2022-12-18T09:38:29;101539.94;;;7.07;94.28
11672;BME280;5892;43.412;24.612;2022-12-18T09:41:03;101541.34;;;7.10;94.88
11672;BME280;5892;43.412;24.612;2022-12-18T09:43:39;101541.47;;;6.98;93.50
11672;BME280;5892;43.412;24.612;2022-12-18T09:46:17;101532.22;;;6.99;93.92
11672;BME280;5892;43.412;24.612;2022-12-18T09:48:49;101534.03;;;7.15;93.96
11672;BME280;5892;43.412;24.612;2022-12-18T09:51:21;101495.00;;;6.83;92.93
11672;BME280;5892;43.412;24.612;2022-12-18T09:53:55;101412.66;;;6.22;93.26
11672;BME280;5892;43.412;24.612;2022-12-18T09:56:35;101509.06;;;7.02;92.61
11672;BME280;5892;43.412;24.612;2022-12-18T09:59:04;101528.69;;;7.26;93.63
11672;BME280;5892;43.412;24.612;2022-12-18T10:01:32;101526.97;;;7.19;93.68
11672;BME280;5892;43.412;24.612;2022-12-18T10:03:59;101536.13;;;7.08;93.67
11672;BME280;5892;43.412;24.612;2022-12-18T10:06:32;101473.09;;;6.73;94.06
11672;BME280;5892;43.412;24.612;2022-12-18T10:09:10;101528.00;;;7.13;94.37
11672;BME280;5892;43.412;24.612;2022-12-18T10:11:49;101534.19;;;7.04;95.14
11672;BME280;5892;43.412;24.612;2022-12-18T10:14:23;101533.13;;;7.05;94.86
11672;BME280;5892;43.412;24.612;2022-12-18T10:16:59;101540.56;;;7.14;95.83
11672;BME280;5892;43.412;24.612;2022-12-18T10:19:39;101507.84;;;6.88;95.06
11672;BME280;5892;43.412;24.612;2022-12-18T10:22:21;101545.38;;;7.07;94.73
11672;BME280;5892;43.412;24.612;2022-12-18T10:24:59;101543.25;;;7.09;95.29
11672;BME280;5892;43.412;24.612;2022-12-18T10:27:30;101548.13;;;7.07;95.01
11672;BME280;5892;43.412;24.612;2022-12-18T10:30:01;101496.94;;;6.61;95.73
11672;BME280;5892;43.412;24.612;2022-12-18T10:32:32;101553.22;;;6.99;96.10
11672;BME280;5892;43.412;24.612;2022-12-18T10:34:59;101517.94;;;6.87;96.66
11672;BME280;5892;43.412;24.612;2022-12-18T10:37:28;101551.47;;;7.14;97.07
11672;BME280;5892;43.412;24.612;2022-12-18T10:40:10;101553.91;;;7.11;96.80
11672;BME280;5892;43.412;24.612;2022-12-18T10:42:38;101531.09;;;6.95;95.78
11672;BME280;5892;43.412;24.612;2022-12-18T10:45:13;101530.53;;;6.93;95.62
11672;BME280;5892;43.412;24.612;2022-12-18T10:47:42;101535.63;;;7.11;95.25
11672;BME280;5892;43.412;24.612;2022-12-18T10:50:24;101531.25;;;7.10;95.27
11672;BME280;5892;43.412;24.612;2022-12-18T10:52:55;101432.81;;;6.48;94.95
11672;BME280;5892;43.412;24.612;2022-12-18T10:55:31;101524.91;;;7.32;95.12
11672;BME280;5892;43.412;24.612;2022-12-18T10:58:16;101540.84;;;7.45;93.66
11672;BME280;5892;43.412;24.612;2022-12-18T11:01:02;101514.63;;;7.44;93.38
11672;BME280;5892;43.412;24.612;2022-12-18T11:03:32;101496.63;;;7.38;93.14
11672;BME280;5892;43.412;24.612;2022-12-18T11:06:11;101539.28;;;7.54;93.56
11672;BME280;5892;43.412;24.612;2022-12-18T11:08:59;101528.88;;;7.51;94.21
11672;BME280;5892;43.412;24.612;2022-12-18T11:11:32;101536.28;;;7.55;93.56
11672;BME280;5892;43.412;24.612;2022-12-18T11:14:04;101518.97;;;7.40;93.63
11672;BME280;5892;43.412;24.612;2022-12-18T11:16:35;101513.06;;;7.48;93.87
11672;BME280;5892;43.412;24.612;2022-12-18T11:19:17;101534.22;;;7.36;93.19
11672;BME280;5892;43.412;24.612;2022-12-18T11:21:48;101529.06;;;7.39;94.24
11672;BME280;5892;43.412;24.612;2022-12-18T11:24:19;101528.41;;;7.59;93.99
11672;BME280;5892;43.412;24.612;2022-12-18T11:26:50;101544.19;;;7.52;94.29
11672;BME280;5892;43.412;24.612;2022-12-18T11:29:23;101532.56;;;7.66;94.78
11672;BME280;5892;43.412;24.612;2022-12-18T11:32:19;101541.00;;;7.65;94.10
11672;BME280;5892;43.412;24.612;2022-12-18T11:34:51;101498.56;;;7.42;94.79
11672;BME280;5892;43.412;24.612;2022-12-18T11:37:20;101541.38;;;7.79;94.88
11672;BME280;5892;43.412;24.612;2022-12-18T11:39:54;101520.84;;;7.71;93.11
11672;BME280;5892;43.412;24.612;2022-12-18T11:42:30;101533.97;;;7.69;91.45
11672;BME280;5892;43.412;24.612;2022-12-18T11:45:14;101510.94;;;7.60;91.69
11672;BME280;5892;43.412;24.612;2022-12-18T11:47:49;101529.22;;;7.59;89.66
11672;BME280;5892;43.412;24.612;2022-12-18T11:50:21;101553.53;;;7.61;88.69
11672;BME280;5892;43.412;24.612;2022-12-18T11:52:50;101553.28;;;7.62;88.48
11672;BME280;5892;43.412;24.612;2022-12-18T11:55:27;101546.75;;;7.63;87.52
11672;BME280;5892;43.412;24.612;2022-12-18T11:58:00;101545.63;;;7.64;87.78
11672;BME280;5892;43.412;24.612;2022-12-18T12:00:32;101536.00;;;7.52;87.55
11672;BME280;5892;43.412;24.612;2022-12-18T12:03:46;101547.00;;;7.62;87.82
11672;BME280;5892;43.412;24.612;2022-12-18T12:06:19;101529.63;;;7.41;87.26
11672;BME280;5892;43.412;24.612;2022-12-18T12:09:02;101549.25;;;7.43;87.55
11672;BME280;5892;43.412;24.612;2022-12-18T12:11:44;101554.44;;;7.40;88.12
11672;BME280;5892;43.412;24.612;2022-12-18T12:14:34;101550.53;;;7.31;88.31
11672;BME280;5892;43.412;24.612;2022-12-18T12:17:09;101550.63;;;7.41;88.65
11672;BME280;5892;43.412;24.612;2022-12-18T12:19:46;101551.94;;;7.38;89.33
11672;BME280;5892;43.412;24.612;2022-12-18T12:22:24;101539.59;;;7.26;89.12
11672;BME280;5892;43.412;24.612;2022-12-18T12:25:07;101551.91;;;7.33;88.13
11672;BME280;5892;43.412;24.612;2022-12-18T12:27:46;101552.72;;;7.34;88.95
11672;BME280;5892;43.412;24.612;2022-12-18T12:30:20;101555.78;;;7.37;89.31
11672;BME280;5892;43.412;24.612;2022-12-18T12:33:03;101536.28;;;7.23;89.21
11672;BME280;5892;43.412;24.612;2022-12-18T12:35:43;101540.06;;;7.22;89.56
11672;BME280;5892;43.412;24.612;2022-12-18T12:38:15;101556.44;;;7.22;89.65
11672;BME280;5892;43.412;24.612;2022-12-18T12:40:49;101553.38;;;7.14;90.75
11672;BME280;5892;43.412;24.612;2022-12-18T12:43:27;101554.97;;;7.10;91.63
11672;BME280;5892;43.412;24.612;2022-12-18T12:46:03;101551.81;;;6.96;91.32
11672;BME280;5892;43.412;24.612;2022-12-18T12:48:37;101548.34;;;7.01;91.72
11672;BME280;5892;43.412;24.612;2022-12-18T12:51:14;101549.72;;;7.03;90.90
11672;BME280;5892;43.412;24.612;2022-12-18T12:53:42;101564.22;;;7.09;90.40
11672;BME280;5892;43.412;24.612;2022-12-18T12:56:13;101556.13;;;6.92;90.94
11672;BME280;5892;43.412;24.612;2022-12-18T12:58:49;101542.91;;;6.79;90.60
11672;BME280;5892;43.412;24.612;2022-12-18T13:01:28;101570.78;;;6.86;91.10
11672;BME280;5892;43.412;24.612;2022-12-18T13:04:03;101579.59;;;6.71;91.17
11672;BME280;5892;43.412;24.612;2022-12-18T13:06:38;101575.38;;;6.59;91.80
11672;BME280;5892;43.412;24.612;2022-12-18T13:09:08;101596.28;;;6.75;92.25
11672;BME280;5892;43.412;24.612;2022-12-18T13:11:38;101545.41;;;6.37;92.54